createdAt,value
2018-12-26T00:00:48.414Z,102371.16
2018-12-26T00:03:52.281Z,102364.63
2018-12-26T00:06:56.191Z,102360.18
2018-12-26T00:10:00.049Z,102354.47
2018-12-26T00:13:04.039Z,102346.52
2018-12-26T00:16:07.958Z,102363.56
2018-12-26T00:19:12.418Z,102370.73
2018-12-26T00:22:18.248Z,102375.78
2018-12-26T00:25:24.190Z,102381.56
2018-12-26T00:28:31.055Z,102386.84
2018-12-26T00:31:34.903Z,102385.92
2018-12-26T00:34:38.820Z,102385.94
2018-12-26T00:37:42.679Z,102380.67
2018-12-26T00:40:46.518Z,102379.75
2018-12-26T00:43:50.369Z,102393.85
2018-12-26T00:46:54.213Z,102398.23
2018-12-26T00:49:58.047Z,102399.56
2018-12-26T00:53:01.924Z,102400.06
2018-12-26T00:56:10.489Z,102403.12
2018-12-26T00:59:11.310Z,102408.97
2018-12-26T01:02:15.494Z,102402.30
2018-12-26T01:05:19.422Z,102397.52
2018-12-26T01:08:23.369Z,102400.80
2018-12-26T01:11:27.208Z,102402.89
2018-12-26T01:14:33.070Z,102397.60
2018-12-26T01:17:36.714Z,102396.78
2018-12-26T01:20:40.584Z,102387.58
2018-12-26T01:23:46.615Z,102394.59
2018-12-26T01:26:50.546Z,102386.17
2018-12-26T01:29:54.387Z,102397.33
2018-12-26T01:32:58.233Z,102402.62
2018-12-26T01:36:02.098Z,102401.30
2018-12-26T01:39:07.225Z,102400.84
2018-12-26T01:42:11.082Z,102397.77
2018-12-26T01:45:15.027Z,102411.89
2018-12-26T01:48:18.899Z,102388.08
2018-12-26T01:51:22.758Z,102381.95
2018-12-26T01:54:26.620Z,102373.06
2018-12-26T01:57:30.459Z,102373.06
2018-12-26T02:00:34.384Z,102370.83
2018-12-26T02:03:38.221Z,102369.50
2018-12-26T02:06:42.156Z,102385.34
2018-12-26T02:09:46.076Z,102390.64
2018-12-26T02:12:50.529Z,102398.56
2018-12-26T02:15:54.399Z,102402.06
2018-12-26T02:18:58.258Z,102388.36
2018-12-26T02:22:02.678Z,102389.19
2018-12-26T02:25:07.001Z,102399.75
2018-12-26T02:28:10.842Z,102392.71
2018-12-26T02:31:14.762Z,102378.09
2018-12-26T02:34:18.623Z,102392.21
2018-12-26T02:37:22.476Z,102385.46
2018-12-26T02:40:26.343Z,102386.77
2018-12-26T02:43:30.188Z,102399.09
2018-12-26T02:46:34.138Z,102393.22
2018-12-26T02:49:38.072Z,102383.45
2018-12-26T02:52:41.990Z,102379.81
2018-12-26T02:55:46.053Z,102377.59
2018-12-26T02:58:50.067Z,102378.48
2018-12-26T03:01:53.978Z,102356.00
2018-12-26T03:04:57.918Z,102359.51
2018-12-26T03:08:01.762Z,102365.77
2018-12-26T03:11:05.607Z,102370.48
2018-12-26T03:14:09.563Z,102363.13
2018-12-26T03:17:13.453Z,102359.98
2018-12-26T03:20:17.325Z,102363.88
2018-12-26T03:23:21.167Z,102366.91
2018-12-26T03:26:25.007Z,102351.06
2018-12-26T03:29:28.898Z,102355.42
2018-12-26T03:32:32.814Z,102368.72
2018-12-26T03:35:36.646Z,102346.30
2018-12-26T03:38:40.579Z,102329.17
2018-12-26T03:41:44.489Z,102341.08
2018-12-26T03:44:51.712Z,102338.87
2018-12-26T03:47:56.921Z,102327.47
2018-12-26T03:51:00.831Z,102322.73
2018-12-26T03:54:04.843Z,102315.65
2018-12-26T03:57:09.069Z,102324.46
2018-12-26T04:00:13.298Z,102330.19
2018-12-26T04:03:17.329Z,102317.89
2018-12-26T04:06:21.252Z,102321.83
2018-12-26T04:09:25.598Z,102326.80
2018-12-26T04:12:29.545Z,102337.36
2018-12-26T04:15:35.265Z,102325.57
2018-12-26T04:18:39.372Z,102320.28
2018-12-26T04:21:43.453Z,102325.22
2018-12-26T04:24:48.416Z,102322.23
2018-12-26T04:27:52.290Z,102321.89
2018-12-26T04:30:57.682Z,102324.11
2018-12-26T04:34:01.653Z,102318.00
2018-12-26T04:37:05.499Z,102322.41
2018-12-26T04:40:09.409Z,102329.08
2018-12-26T04:43:13.263Z,102325.88
2018-12-26T04:46:17.126Z,102325.20
2018-12-26T04:49:20.979Z,102328.72
2018-12-26T04:52:24.819Z,102335.34
2018-12-26T04:55:28.673Z,102344.23
2018-12-26T04:58:32.521Z,102332.83
2018-12-26T05:01:36.397Z,102331.09
2018-12-26T05:04:40.561Z,102328.02
2018-12-26T05:07:44.406Z,102335.14
2018-12-26T05:10:48.381Z,102329.42
2018-12-26T05:13:52.306Z,102325.95
2018-12-26T05:16:56.255Z,102319.39
2018-12-26T05:20:00.195Z,102327.83
2018-12-26T05:23:04.198Z,102326.92
2018-12-26T05:26:08.129Z,102334.86
2018-12-26T05:29:11.993Z,102329.14
2018-12-26T05:32:15.928Z,102334.14
2018-12-26T05:35:19.917Z,102331.30
2018-12-26T05:38:23.873Z,102336.18
2018-12-26T05:41:27.715Z,102337.44
2018-12-26T05:44:31.575Z,102347.59
2018-12-26T05:47:35.440Z,102343.62
2018-12-26T05:50:39.304Z,102343.13
2018-12-26T05:53:43.168Z,102333.89
2018-12-26T05:56:47.118Z,102336.52
2018-12-26T05:59:50.970Z,102343.97
2018-12-26T06:02:54.820Z,102335.98
2018-12-26T06:05:58.897Z,102353.11
2018-12-26T06:09:02.949Z,102355.76
2018-12-26T06:12:06.781Z,102359.73
2018-12-26T06:15:12.990Z,102361.87
2018-12-26T06:18:16.856Z,102358.30
2018-12-26T06:21:20.739Z,102362.35
2018-12-26T06:24:24.982Z,102353.50
2018-12-26T06:27:30.230Z,102356.16
2018-12-26T06:30:34.100Z,102354.48
2018-12-26T06:33:37.947Z,102358.45
2018-12-26T06:36:41.802Z,102356.66
2018-12-26T06:39:45.730Z,102362.92
2018-12-26T06:42:49.593Z,102370.30
2018-12-26T06:45:53.437Z,102380.89
2018-12-26T06:48:57.315Z,102392.91
2018-12-26T06:52:01.159Z,102392.58
2018-12-26T06:55:05.173Z,102396.55
2018-12-26T06:58:09.015Z,102398.36
2018-12-26T07:01:12.857Z,102405.06
2018-12-26T07:04:16.716Z,102408.20
2018-12-26T07:07:20.563Z,102409.98
2018-12-26T07:10:25.064Z,102416.63
2018-12-26T07:13:28.912Z,102418.42
2018-12-26T07:16:34.839Z,102424.62
2018-12-26T07:19:38.691Z,102433.95
2018-12-26T07:22:42.544Z,102431.31
2018-12-26T07:25:46.385Z,102423.80
2018-12-26T07:28:50.335Z,102425.95
2018-12-26T07:31:54.189Z,102432.52
2018-12-26T07:34:58.033Z,102443.10
2018-12-26T07:38:01.950Z,102440.45
2018-12-26T07:41:05.810Z,102444.39
2018-12-26T07:44:09.650Z,102448.74
2018-12-26T07:47:13.489Z,102444.34
2018-12-26T07:50:17.347Z,102444.77
2018-12-26T07:53:21.266Z,102450.06
2018-12-26T07:56:25.099Z,102445.67
2018-12-26T07:59:37.526Z,102447.83
2018-12-26T08:02:37.081Z,102453.66
2018-12-26T08:05:40.935Z,102450.06
2018-12-26T08:08:44.827Z,102451.39
2018-12-26T08:11:48.747Z,102452.33
2018-12-26T08:14:52.712Z,102460.22
2018-12-26T08:17:56.596Z,102462.85
2018-12-26T08:21:00.451Z,102465.00
2018-12-26T08:24:04.423Z,102468.52
2018-12-26T08:27:08.255Z,102470.88
2018-12-26T08:30:12.100Z,102462.46
2018-12-26T08:33:17.652Z,102473.44
2018-12-26T08:36:21.578Z,102482.66
2018-12-26T08:39:25.561Z,102484.47
2018-12-26T08:42:29.476Z,102481.81
2018-12-26T08:45:33.322Z,102475.33
2018-12-26T08:48:37.339Z,102481.89
2018-12-26T08:51:43.298Z,102489.77
2018-12-26T08:54:47.178Z,102491.50
2018-12-26T08:57:51.038Z,102497.19
2018-12-26T09:00:54.972Z,102502.50
2018-12-26T09:03:58.828Z,102515.80
2018-12-26T09:07:02.716Z,102512.16
2018-12-26T09:10:07.490Z,102515.23
2018-12-26T09:13:11.380Z,102514.73
2018-12-26T09:16:17.258Z,102522.17
2018-12-26T09:19:21.155Z,102517.72
2018-12-26T09:22:25.022Z,102514.65
2018-12-26T09:25:29.635Z,102520.83
2018-12-26T09:28:33.467Z,102517.31
2018-12-26T09:31:37.314Z,102515.13
2018-12-26T09:34:41.161Z,102515.47
2018-12-26T09:37:45.026Z,102518.59
2018-12-26T09:40:48.975Z,102525.16
2018-12-26T09:43:55.963Z,102516.70
2018-12-26T09:46:59.912Z,102527.30
2018-12-26T09:50:04.014Z,102517.19
2018-12-26T09:53:07.875Z,102517.19
2018-12-26T09:56:11.733Z,102518.11
2018-12-26T09:59:15.652Z,102513.63
2018-12-26T10:02:19.591Z,102516.70
2018-12-26T10:05:26.985Z,102513.58
2018-12-26T10:08:30.830Z,102514.04
2018-12-26T10:11:34.843Z,102523.30
2018-12-26T10:14:38.755Z,102516.62
2018-12-26T10:17:42.595Z,102509.59
2018-12-26T10:20:46.437Z,102499.48
2018-12-26T10:23:50.281Z,102503.41
2018-12-26T10:26:54.211Z,102503.80
2018-12-26T10:29:58.154Z,102505.53
2018-12-26T10:33:01.994Z,102501.14
2018-12-26T10:36:05.854Z,102497.66
2018-12-26T10:39:09.793Z,102498.50
2018-12-26T10:42:13.708Z,102500.66
2018-12-26T10:45:17.652Z,102500.23
2018-12-26T10:48:23.075Z,102504.61
2018-12-26T10:51:27.032Z,102509.52
2018-12-26T10:54:30.969Z,102514.48
2018-12-26T10:57:35.087Z,102504.20
2018-12-26T11:00:39.061Z,102501.06
2018-12-26T11:03:42.860Z,102496.61
2018-12-26T11:06:46.702Z,102503.70
2018-12-26T11:09:50.556Z,102497.52
2018-12-26T11:12:54.439Z,102501.97
2018-12-26T11:15:58.519Z,102501.98
2018-12-26T11:19:03.223Z,102500.25
2018-12-26T11:22:07.058Z,102493.13
2018-12-26T11:25:11.213Z,102488.41
2018-12-26T11:28:15.067Z,102486.59
2018-12-26T11:31:19.072Z,102481.42
2018-12-26T11:34:24.246Z,102477.41
2018-12-26T11:37:28.134Z,102469.06
2018-12-26T11:40:32.192Z,102468.66
2018-12-26T11:43:36.034Z,102469.64
2018-12-26T11:46:39.891Z,102462.61
2018-12-26T11:49:43.824Z,102473.22
2018-12-26T11:52:47.766Z,102479.91
2018-12-26T11:55:51.721Z,102478.59
2018-12-26T11:58:58.515Z,102482.13
2018-12-26T12:02:02.452Z,102470.70
2018-12-26T12:05:06.770Z,102462.39
2018-12-26T12:08:10.618Z,102467.19
2018-12-26T12:11:14.666Z,102471.57
2018-12-26T12:14:18.607Z,102467.69
2018-12-26T12:17:22.570Z,102471.01
2018-12-26T12:20:26.565Z,102474.44
2018-12-26T12:23:32.613Z,102482.44
2018-12-26T12:26:36.466Z,102479.53
2018-12-26T12:29:40.310Z,102479.45
2018-12-26T12:32:44.277Z,102474.16
2018-12-26T12:35:48.261Z,102469.77
2018-12-26T12:38:54.829Z,102464.05
2018-12-26T12:41:58.837Z,102473.31
2018-12-26T12:45:02.801Z,102475.98
2018-12-26T12:48:06.856Z,102470.76
2018-12-26T12:51:10.740Z,102476.52
2018-12-26T12:54:14.578Z,102473.47
2018-12-26T12:57:18.547Z,102478.83
2018-12-26T13:00:22.556Z,102479.79
2018-12-26T13:03:26.574Z,102479.00
2018-12-26T13:06:30.429Z,102475.98
2018-12-26T13:09:34.312Z,102479.62
2018-12-26T13:12:38.268Z,102479.38
2018-12-26T13:15:42.235Z,102481.97
2018-12-26T13:18:46.109Z,102477.22
2018-12-26T13:21:52.339Z,102483.47
2018-12-26T13:24:56.268Z,102479.08
2018-12-26T13:28:01.715Z,102481.41
2018-12-26T13:31:05.693Z,102476.53
2018-12-26T13:34:09.654Z,102469.47
2018-12-26T13:37:13.627Z,102460.25
2018-12-26T13:40:17.559Z,102467.78
2018-12-26T13:43:21.492Z,102468.25
2018-12-26T13:46:33.773Z,102465.17
2018-12-26T13:49:33.229Z,102462.99
2018-12-26T13:52:37.132Z,102459.03
2018-12-26T13:55:41.000Z,102461.30
2018-12-26T13:58:44.948Z,102452.44
2018-12-26T14:01:48.830Z,102462.19
2018-12-26T14:04:56.075Z,102456.47
2018-12-26T14:07:59.968Z,102453.86
2018-12-26T14:11:03.851Z,102452.56
2018-12-26T14:14:07.737Z,102452.58
2018-12-26T14:17:11.623Z,102447.73
2018-12-26T14:20:15.488Z,102457.45
2018-12-26T14:23:19.349Z,102461.91
2018-12-26T14:26:23.287Z,102460.58
2018-12-26T14:29:29.006Z,102460.14
2018-12-26T14:32:32.974Z,102454.84
2018-12-26T14:35:38.914Z,102459.72
2018-12-26T14:38:42.777Z,102454.84
2018-12-26T14:41:46.638Z,102453.52
2018-12-26T14:44:50.565Z,102452.22
2018-12-26T14:47:54.790Z,102459.28
2018-12-26T14:50:58.715Z,102453.98
2018-12-26T14:54:06.205Z,102458.00
2018-12-26T14:57:10.429Z,102457.53
2018-12-26T15:00:19.827Z,102459.29
2018-12-26T15:03:20.048Z,102455.81
2018-12-26T15:06:24.079Z,102456.68
2018-12-26T15:09:28.084Z,102451.84
2018-12-26T15:12:31.971Z,102453.13
2018-12-26T15:15:35.902Z,102460.66
2018-12-26T15:18:39.905Z,102450.94
2018-12-26T15:21:43.707Z,102444.30
2018-12-26T15:24:47.644Z,102445.16
2018-12-26T15:27:51.578Z,102442.51
2018-12-26T15:30:55.452Z,102438.06
2018-12-26T15:33:59.375Z,102438.49
2018-12-26T15:37:03.220Z,102443.37
2018-12-26T15:40:08.982Z,102438.96
2018-12-26T15:43:12.854Z,102442.51
2018-12-26T15:46:16.742Z,102436.73
2018-12-26T15:49:20.671Z,102440.28
2018-12-26T15:52:29.939Z,102442.94
2018-12-26T15:55:37.458Z,102440.72
2018-12-26T15:58:41.399Z,102440.25
2018-12-26T16:01:45.327Z,102438.02
2018-12-26T16:04:49.277Z,102435.12
2018-12-26T16:07:55.642Z,102439.35
2018-12-26T16:10:59.644Z,102431.34
2018-12-26T16:14:03.654Z,102434.43
2018-12-26T16:17:07.506Z,102426.90
2018-12-26T16:20:11.730Z,102424.67
2018-12-26T16:23:15.672Z,102429.09
2018-12-26T16:26:19.545Z,102413.17
2018-12-26T16:29:23.463Z,102423.81
2018-12-26T16:32:27.851Z,102418.90
2018-12-26T16:35:31.782Z,102421.55
2018-12-26T16:38:35.791Z,102410.94
2018-12-26T16:41:39.750Z,102414.92
2018-12-26T16:44:43.689Z,102408.29
2018-12-26T16:47:49.629Z,102406.50
2018-12-26T16:50:53.383Z,102406.53
2018-12-26T16:53:57.272Z,102399.86
2018-12-26T16:57:01.147Z,102399.47
2018-12-26T17:00:05.527Z,102387.53
2018-12-26T17:03:11.877Z,102386.67
2018-12-26T17:06:15.820Z,102382.73
2018-12-26T17:09:19.734Z,102387.97
2018-12-26T17:12:23.693Z,102383.52
2018-12-26T17:15:27.622Z,102377.78
2018-12-26T17:18:31.572Z,102387.50
2018-12-26T17:21:35.600Z,102391.44
2018-12-26T17:24:39.533Z,102386.13
2018-12-26T17:27:43.405Z,102391.01
2018-12-26T17:30:47.462Z,102381.25
2018-12-26T17:33:51.318Z,102389.20
2018-12-26T17:36:58.602Z,102388.27
2018-12-26T17:40:02.607Z,102381.22
2018-12-26T17:43:06.611Z,102384.72
2018-12-26T17:46:10.570Z,102381.17
2018-12-26T17:49:16.065Z,102380.74
2018-12-26T17:52:22.173Z,102380.70
2018-12-26T17:55:55.194Z,102389.98
2018-12-26T17:59:39.447Z,102390.83
2018-12-26T18:02:46.077Z,102384.63
2018-12-26T18:05:50.544Z,102384.59
2018-12-26T18:08:54.462Z,102383.26
2018-12-26T18:12:11.239Z,102377.06
2018-12-26T18:15:04.264Z,102385.44
2018-12-26T18:18:08.227Z,102400.87
2018-12-26T18:21:12.149Z,102396.85
2018-12-26T18:24:16.140Z,102389.79
2018-12-26T18:27:20.430Z,102401.67
2018-12-26T18:30:24.456Z,102394.62
2018-12-26T18:33:28.382Z,102387.14
2018-12-26T18:36:32.306Z,102384.44
2018-12-26T18:39:36.256Z,102396.37
2018-12-26T18:42:40.178Z,102393.24
2018-12-26T18:45:44.040Z,102384.44
2018-12-26T18:48:47.970Z,102393.29
2018-12-26T18:51:51.902Z,102390.59
2018-12-26T18:54:55.889Z,102389.31
2018-12-26T18:57:59.732Z,102391.48
2018-12-26T19:01:03.745Z,102386.63
2018-12-26T19:04:07.672Z,102386.66
2018-12-26T19:07:11.604Z,102383.59
2018-12-26T19:10:15.481Z,102385.77
2018-12-26T19:13:19.332Z,102398.55
2018-12-26T19:16:23.268Z,102379.99
2018-12-26T19:19:29.622Z,102379.99
2018-12-26T19:22:33.464Z,102383.50
2018-12-26T19:25:37.357Z,102384.39
2018-12-26T19:28:41.261Z,102381.75
2018-12-26T19:31:45.465Z,102388.74
2018-12-26T19:34:49.391Z,102390.07
2018-12-26T19:37:53.379Z,102393.56
2018-12-26T19:40:57.198Z,102389.13
2018-12-26T19:44:01.060Z,102393.98
2018-12-26T19:47:04.992Z,102391.29
2018-12-26T19:50:09.641Z,102391.33
2018-12-26T19:53:14.989Z,102400.13
2018-12-26T19:56:19.582Z,102381.06
2018-12-26T19:59:23.537Z,102389.89
2018-12-26T20:02:27.492Z,102395.56
2018-12-26T20:05:31.423Z,102395.56
2018-12-26T20:08:35.279Z,102396.41
2018-12-26T20:11:39.408Z,102397.36
2018-12-26T20:14:43.278Z,102399.48
2018-12-26T20:17:47.311Z,102393.33
2018-12-26T20:20:52.887Z,102397.67
2018-12-26T20:23:56.759Z,102394.09
2018-12-26T20:27:00.600Z,102396.73
2018-12-26T20:30:05.093Z,102401.17
2018-12-26T20:33:09.593Z,102394.94
2018-12-26T20:36:15.013Z,102395.83
2018-12-26T20:39:18.901Z,102396.25
2018-12-26T20:42:22.734Z,102396.20
2018-12-26T20:45:26.611Z,102393.59
2018-12-26T20:48:30.478Z,102393.11
2018-12-26T20:51:34.377Z,102395.29
2018-12-26T20:54:38.269Z,102386.39
2018-12-26T20:57:42.140Z,102386.00
2018-12-26T21:00:46.073Z,102382.84
2018-12-26T21:03:49.960Z,102374.45
2018-12-26T21:06:53.974Z,102382.35
2018-12-26T21:09:57.873Z,102367.78
2018-12-26T21:13:01.748Z,102363.81
2018-12-26T21:16:05.766Z,102373.08
2018-12-26T21:19:09.607Z,102361.64
2018-12-26T21:22:18.856Z,102354.11
2018-12-26T21:25:24.384Z,102350.56
2018-12-26T21:28:28.252Z,102355.44
2018-12-26T21:31:34.072Z,102341.73
2018-12-26T21:34:37.682Z,102344.92
2018-12-26T21:37:41.628Z,102350.14
2018-12-26T21:40:45.580Z,102348.35
2018-12-26T21:43:49.515Z,102332.94
2018-12-26T21:46:53.510Z,102333.83
2018-12-26T21:49:57.381Z,102332.04
2018-12-26T21:53:01.624Z,102328.95
2018-12-26T21:56:06.188Z,102325.95
2018-12-26T21:59:12.143Z,102338.72
2018-12-26T22:02:22.424Z,102326.75
2018-12-26T22:05:21.320Z,102335.59
2018-12-26T22:08:25.684Z,102335.58
2018-12-26T22:11:29.657Z,102331.19
2018-12-26T22:14:33.721Z,102324.52
2018-12-26T22:17:37.737Z,102327.64
2018-12-26T22:20:41.593Z,102317.47
2018-12-26T22:23:45.686Z,102321.44
2018-12-26T22:26:49.535Z,102325.95
2018-12-26T22:29:53.377Z,102325.41
2018-12-26T22:32:57.261Z,102327.16
2018-12-26T22:36:01.495Z,102326.25
2018-12-26T22:39:07.311Z,102320.96
2018-12-26T22:42:11.339Z,102320.91
2018-12-26T22:45:15.391Z,102320.85
2018-12-26T22:48:19.251Z,102319.99
2018-12-26T22:51:23.112Z,102314.70
2018-12-26T22:54:27.115Z,102313.76
2018-12-26T22:57:31.066Z,102317.73
2018-12-26T23:00:41.026Z,102306.23
2018-12-26T23:03:46.000Z,102310.26
2018-12-26T23:06:51.915Z,102309.84
2018-12-26T23:09:55.756Z,102302.73
2018-12-26T23:12:59.622Z,102307.61
2018-12-26T23:16:03.459Z,102308.45
2018-12-26T23:19:09.834Z,102307.56
2018-12-26T23:22:13.682Z,102301.46
2018-12-26T23:25:17.624Z,102293.00
2018-12-26T23:28:23.540Z,102298.36
2018-12-26T23:31:27.419Z,102295.22
2018-12-26T23:34:31.258Z,102293.16
2018-12-26T23:37:35.122Z,102290.83
2018-12-26T23:40:39.230Z,102299.61
2018-12-26T23:43:43.203Z,102284.27
2018-12-26T23:46:47.047Z,102293.05
2018-12-26T23:49:50.936Z,102296.12
2018-12-26T23:52:54.782Z,102293.00
2018-12-26T23:55:58.653Z,102289.92
2018-12-26T23:59:03.108Z,102290.83
